Aviation Digital Data Service (ADDS)

Output produced by METARs form (1100 UTC 11 May 2021)
found at http://www.aviationweather.gov/metar/data/
 
METAR text: RJCC 111030Z 35009KT 9999 FEW015 08/05 Q1017 RMK 1ST015 A3004
Conditions at: RJCC (CHITOSE (JASDF/C, JP) observed 1030 UTC 11 May 2021
Temperature: 8.0°C (46°F)
Dewpoint: 5.0°C (41°F) [RH = 81%]
Pressure (altimeter): 30.03 inches Hg (1017.0 mb)
Winds: from the N (350 degrees) at 10 MPH (9 knots; 4.6 m/s)
Visibility: 6 or more miles (10+ km)
Ceiling: at least 12,000 feet AGL
Clouds: few clouds at 1500 feet AGL
Weather: no significant weather observed at this time

METAR text: RJCC 111000Z 34011KT 9999 FEW015 08/05 Q1016 RMK 1ST015 A3003
Conditions at: RJCC (CHITOSE (JASDF/C, JP) observed 1000 UTC 11 May 2021
Temperature: 8.0°C (46°F)
Dewpoint: 5.0°C (41°F) [RH = 81%]
Pressure (altimeter): 30.00 inches Hg (1016.0 mb)
Winds: from the NNW (340 degrees) at 13 MPH (11 knots; 5.7 m/s)
Visibility: 6 or more miles (10+ km)
Ceiling: at least 12,000 feet AGL
Clouds: few clouds at 1500 feet AGL
Weather: no significant weather observed at this time

METAR text: RJCC 110930Z 34010KT 9999 FEW015 09/04 Q1016 RMK 1ST015 A3001
Conditions at: RJCC (CHITOSE (JASDF/C, JP) observed 0930 UTC 11 May 2021
Temperature: 9.0°C (48°F)
Dewpoint: 4.0°C (39°F) [RH = 71%]
Pressure (altimeter): 30.00 inches Hg (1016.0 mb)
Winds: from the NNW (340 degrees) at 12 MPH (10 knots; 5.1 m/s)
Visibility: 6 or more miles (10+ km)
Ceiling: at least 12,000 feet AGL
Clouds: few clouds at 1500 feet AGL
Weather: no significant weather observed at this time

METAR text: RJCC 110900Z 35014KT 9999 FEW015 09/05 Q1016 RMK 1ST015 A3000
Conditions at: RJCC (CHITOSE (JASDF/C, JP) observed 0900 UTC 11 May 2021
Temperature: 9.0°C (48°F)
Dewpoint: 5.0°C (41°F) [RH = 76%]
Pressure (altimeter): 30.00 inches Hg (1016.0 mb)
Winds: from the N (350 degrees) at 16 MPH (14 knots; 7.2 m/s)
Visibility: 6 or more miles (10+ km)
Ceiling: at least 12,000 feet AGL
Clouds: few clouds at 1500 feet AGL
Weather: no significant weather observed at this time

METAR text: RJCC 110830Z 34015KT 9999 FEW030 BKN/// 10/05 Q1015 RMK 1CU030 A2999
Conditions at: RJCC (CHITOSE (JASDF/C, JP) observed 0830 UTC 11 May 2021
Temperature: 10.0°C (50°F)
Dewpoint: 5.0°C (41°F) [RH = 71%]
Pressure (altimeter): 29.97 inches Hg (1015.0 mb)
Winds: from the NNW (340 degrees) at 17 MPH (15 knots; 7.7 m/s)
Visibility: 6 or more miles (10+ km)
Ceiling: at least 12,000 feet AGL
Clouds: few clouds at 3000 feet AGL
Weather: no significant weather observed at this time

METAR text: RJCC 110800Z 34017KT 9999 FEW030 SCT120 BKN/// 11/05 Q1015
Conditions at: RJCC (CHITOSE (JASDF/C, JP) observed 0800 UTC 11 May 2021
Temperature: 11.0°C (52°F)
Dewpoint: 5.0°C (41°F) [RH = 66%]
Pressure (altimeter): 29.97 inches Hg (1015.0 mb)
Winds: from the NNW (340 degrees) at 20 MPH (17 knots; 8.7 m/s)
Visibility: 6 or more miles (10+ km)
Ceiling: at least 12,000 feet AGL
Clouds: few clouds at 3000 feet AGL
scattered clouds at 12000 feet AGL
Weather: no significant weather observed at this time

METAR text: RJCC 110730Z 35016KT 9999 FEW030 BKN120 BKN/// 12/05 Q1015 RMK 1CU030 5AC120 A2997
Conditions at: RJCC (CHITOSE (JASDF/C, JP) observed 0730 UTC 11 May 2021
Temperature: 12.0°C (54°F)
Dewpoint: 5.0°C (41°F) [RH = 62%]
Pressure (altimeter): 29.97 inches Hg (1015.0 mb)
Winds: from the N (350 degrees) at 18 MPH (16 knots; 8.2 m/s)
Visibility: 6 or more miles (10+ km)
Ceiling: 12000 feet AGL
Clouds: few clouds at 3000 feet AGL
broken clouds at 12000 feet AGL
Weather: no significant weather observed at this time

METAR text: RJCC 110700Z 35014KT 9999 FEW030 BKN120 BKN/// 12/05 Q1014 RMK 1CU030 5AC120 A2997
Conditions at: RJCC (CHITOSE (JASDF/C, JP) observed 0700 UTC 11 May 2021
Temperature: 12.0°C (54°F)
Dewpoint: 5.0°C (41°F) [RH = 62%]
Pressure (altimeter): 29.94 inches Hg (1014.0 mb)
Winds: from the N (350 degrees) at 16 MPH (14 knots; 7.2 m/s)
Visibility: 6 or more miles (10+ km)
Ceiling: 12000 feet AGL
Clouds: few clouds at 3000 feet AGL
broken clouds at 12000 feet AGL
Weather: no significant weather observed at this time

METAR text: RJCC 110630Z 36014KT 9999 FEW030 BKN120 12/06 Q1014 RMK 1CU030 7AC120 A2996
Conditions at: RJCC (CHITOSE (JASDF/C, JP) observed 0630 UTC 11 May 2021
Temperature: 12.0°C (54°F)
Dewpoint: 6.0°C (43°F) [RH = 67%]
Pressure (altimeter): 29.94 inches Hg (1014.0 mb)
Winds: from the N (360 degrees) at 16 MPH (14 knots; 7.2 m/s)
Visibility: 6 or more miles (10+ km)
Ceiling: 12000 feet AGL
Clouds: few clouds at 3000 feet AGL
broken clouds at 12000 feet AGL
Weather: no significant weather observed at this time

METAR text: RJCC 110600Z 36015KT 9999 FEW025 BKN120 12/05 Q1014 RMK 1CU025 7AC120 A2996
Conditions at: RJCC (CHITOSE (JASDF/C, JP) observed 0600 UTC 11 May 2021
Temperature: 12.0°C (54°F)
Dewpoint: 5.0°C (41°F) [RH = 62%]
Pressure (altimeter): 29.94 inches Hg (1014.0 mb)
Winds: from the N (360 degrees) at 17 MPH (15 knots; 7.7 m/s)
Visibility: 6 or more miles (10+ km)
Ceiling: 12000 feet AGL
Clouds: few clouds at 2500 feet AGL
broken clouds at 12000 feet AGL
Weather: no significant weather observed at this time

METAR text: RJCC 110530Z 36015KT 9999 FEW025 BKN080 BKN120 13/06 Q1014 RMK 1CU025 5AC080 7AC120 A2995
Conditions at: RJCC (CHITOSE (JASDF/C, JP) observed 0530 UTC 11 May 2021
Temperature: 13.0°C (55°F)
Dewpoint: 6.0°C (43°F) [RH = 62%]
Pressure (altimeter): 29.94 inches Hg (1014.0 mb)
Winds: from the N (360 degrees) at 17 MPH (15 knots; 7.7 m/s)
Visibility: 6 or more miles (10+ km)
Ceiling: 8000 feet AGL
Clouds: few clouds at 2500 feet AGL
broken clouds at 8000 feet AGL
broken clouds at 12000 feet AGL
Weather: no significant weather observed at this time

METAR text: RJCC 110500Z 35013KT 9999 FEW025 BKN080 13/06 Q1014 RMK 2CU025 7AC080 A2995
Conditions at: RJCC (CHITOSE (JASDF/C, JP) observed 0500 UTC 11 May 2021
Temperature: 13.0°C (55°F)
Dewpoint: 6.0°C (43°F) [RH = 62%]
Pressure (altimeter): 29.94 inches Hg (1014.0 mb)
Winds: from the N (350 degrees) at 15 MPH (13 knots; 6.7 m/s)
Visibility: 6 or more miles (10+ km)
Ceiling: 8000 feet AGL
Clouds: few clouds at 2500 feet AGL
broken clouds at 8000 feet AGL
Weather: no significant weather observed at this time

METAR text: RJCC 110430Z 35014KT 9999 FEW020 SCT025 BKN070 13/05 Q1014 RMK 1ST020 3CU025 7AC070 A2995
Conditions at: RJCC (CHITOSE (JASDF/C, JP) observed 0430 UTC 11 May 2021
Temperature: 13.0°C (55°F)
Dewpoint: 5.0°C (41°F) [RH = 58%]
Pressure (altimeter): 29.94 inches Hg (1014.0 mb)
Winds: from the N (350 degrees) at 16 MPH (14 knots; 7.2 m/s)
Visibility: 6 or more miles (10+ km)
Ceiling: 7000 feet AGL
Clouds: few clouds at 2000 feet AGL
scattered clouds at 2500 feet AGL
broken clouds at 7000 feet AGL
Weather: no significant weather observed at this time

METAR text: RJCC 110400Z 33014KT 9999 FEW020 SCT025 BKN070 13/06 Q1014 RMK 1ST020 4CU025 7AC070 A2995
Conditions at: RJCC (CHITOSE (JASDF/C, JP) observed 0400 UTC 11 May 2021
Temperature: 13.0°C (55°F)
Dewpoint: 6.0°C (43°F) [RH = 62%]
Pressure (altimeter): 29.94 inches Hg (1014.0 mb)
Winds: from the NNW (330 degrees) at 16 MPH (14 knots; 7.2 m/s)
Visibility: 6 or more miles (10+ km)
Ceiling: 7000 feet AGL
Clouds: few clouds at 2000 feet AGL
scattered clouds at 2500 feet AGL
broken clouds at 7000 feet AGL
Weather: no significant weather observed at this time

METAR text: RJCC 110330Z 34016KT 9999 FEW015 SCT025 BKN080 13/05 Q1014 RMK 1ST015 3CU025 7AC080 A2996
Conditions at: RJCC (CHITOSE (JASDF/C, JP) observed 0330 UTC 11 May 2021
Temperature: 13.0°C (55°F)
Dewpoint: 5.0°C (41°F) [RH = 58%]
Pressure (altimeter): 29.94 inches Hg (1014.0 mb)
Winds: from the NNW (340 degrees) at 18 MPH (16 knots; 8.2 m/s)
Visibility: 6 or more miles (10+ km)
Ceiling: 8000 feet AGL
Clouds: few clouds at 1500 feet AGL
scattered clouds at 2500 feet AGL
broken clouds at 8000 feet AGL
Weather: no significant weather observed at this time

METAR text: RJCC 110300Z 34016KT 9999 FEW015 SCT020 BKN080 13/06 Q1014 RMK 1ST015 3CU020 7AC080 A2995
Conditions at: RJCC (CHITOSE (JASDF/C, JP) observed 0300 UTC 11 May 2021
Temperature: 13.0°C (55°F)
Dewpoint: 6.0°C (43°F) [RH = 62%]
Pressure (altimeter): 29.94 inches Hg (1014.0 mb)
Winds: from the NNW (340 degrees) at 18 MPH (16 knots; 8.2 m/s)
Visibility: 6 or more miles (10+ km)
Ceiling: 8000 feet AGL
Clouds: few clouds at 1500 feet AGL
scattered clouds at 2000 feet AGL
broken clouds at 8000 feet AGL
Weather: no significant weather observed at this time

METAR text: RJCC 110230Z 35016KT 9999 FEW015 SCT020 BKN070 12/05 Q1014 RMK 2ST015 4CU020 7AC070 A2995
Conditions at: RJCC (CHITOSE (JASDF/C, JP) observed 0230 UTC 11 May 2021
Temperature: 12.0°C (54°F)
Dewpoint: 5.0°C (41°F) [RH = 62%]
Pressure (altimeter): 29.94 inches Hg (1014.0 mb)
Winds: from the N (350 degrees) at 18 MPH (16 knots; 8.2 m/s)
Visibility: 6 or more miles (10+ km)
Ceiling: 7000 feet AGL
Clouds: few clouds at 1500 feet AGL
scattered clouds at 2000 feet AGL
broken clouds at 7000 feet AGL
Weather: no significant weather observed at this time

METAR text: RJCC 110200Z 35016KT 9999 FEW012 SCT015 BKN070 11/06 Q1014 RMK 1ST012 3ST015 7AC070 A2995
Conditions at: RJCC (CHITOSE (JASDF/C, JP) observed 0200 UTC 11 May 2021
Temperature: 11.0°C (52°F)
Dewpoint: 6.0°C (43°F) [RH = 71%]
Pressure (altimeter): 29.94 inches Hg (1014.0 mb)
Winds: from the N (350 degrees) at 18 MPH (16 knots; 8.2 m/s)
Visibility: 6 or more miles (10+ km)
Ceiling: 7000 feet AGL
Clouds: few clouds at 1200 feet AGL
scattered clouds at 1500 feet AGL
broken clouds at 7000 feet AGL
Weather: no significant weather observed at this time

METAR text: RJCC 110130Z 35016KT 9999 FEW012 SCT015 BKN020 10/06 Q1014 RMK 1ST012 4ST015 7CU020 A2995
Conditions at: RJCC (CHITOSE (JASDF/C, JP) observed 0130 UTC 11 May 2021
Temperature: 10.0°C (50°F)
Dewpoint: 6.0°C (43°F) [RH = 76%]
Pressure (altimeter): 29.94 inches Hg (1014.0 mb)
Winds: from the N (350 degrees) at 18 MPH (16 knots; 8.2 m/s)
Visibility: 6 or more miles (10+ km)
Ceiling: 2000 feet AGL
Clouds: few clouds at 1200 feet AGL
scattered clouds at 1500 feet AGL
broken clouds at 2000 feet AGL
Weather: no significant weather observed at this time

METAR text: RJCC 110100Z 35016KT 9999 FEW015 BKN020 12/06 Q1014 RMK 2ST015 6CU020 A2995
Conditions at: RJCC (CHITOSE (JASDF/C, JP) observed 0100 UTC 11 May 2021
Temperature: 12.0°C (54°F)
Dewpoint: 6.0°C (43°F) [RH = 67%]
Pressure (altimeter): 29.94 inches Hg (1014.0 mb)
Winds: from the N (350 degrees) at 18 MPH (16 knots; 8.2 m/s)
Visibility: 6 or more miles (10+ km)
Ceiling: 2000 feet AGL
Clouds: few clouds at 1500 feet AGL
broken clouds at 2000 feet AGL
Weather: no significant weather observed at this time

METAR text: RJCC 110030Z 35017KT 9999 FEW010 BKN015 BKN070 11/06 Q1013 RMK 1ST010 5ST015 6AC070 A2994
Conditions at: RJCC (CHITOSE (JASDF/C, JP) observed 0030 UTC 11 May 2021
Temperature: 11.0°C (52°F)
Dewpoint: 6.0°C (43°F) [RH = 71%]
Pressure (altimeter): 29.91 inches Hg (1013.0 mb)
Winds: from the N (350 degrees) at 20 MPH (17 knots; 8.7 m/s)
Visibility: 6 or more miles (10+ km)
Ceiling: 1500 feet AGL
Clouds: few clouds at 1000 feet AGL
broken clouds at 1500 feet AGL
broken clouds at 7000 feet AGL
Weather: no significant weather observed at this time

METAR text: RJCC 110000Z 35015KT 9999 FEW010 BKN015 BKN040 09/06 Q1013 RMK 1ST010 5ST015 7CU040 A2994
Conditions at: RJCC (CHITOSE (JASDF/C, JP) observed 0000 UTC 11 May 2021
Temperature: 9.0°C (48°F)
Dewpoint: 6.0°C (43°F) [RH = 81%]
Pressure (altimeter): 29.91 inches Hg (1013.0 mb)
Winds: from the N (350 degrees) at 17 MPH (15 knots; 7.7 m/s)
Visibility: 6 or more miles (10+ km)
Ceiling: 1500 feet AGL
Clouds: few clouds at 1000 feet AGL
broken clouds at 1500 feet AGL
broken clouds at 4000 feet AGL
Weather: no significant weather observed at this time

METAR text: RJCC 102330Z 34014G24KT 9999 FEW005 SCT012 BKN040 09/06 Q1013 RMK 1ST005 4ST012 7CU040 A2993
Conditions at: RJCC (CHITOSE (JASDF/C, JP) observed 2330 UTC 10 May 2021
Temperature: 9.0°C (48°F)
Dewpoint: 6.0°C (43°F) [RH = 81%]
Pressure (altimeter): 29.91 inches Hg (1013.0 mb)
Winds: from the NNW (340 degrees) at 16 MPH (14 knots; 7.2 m/s)
gusting to 28 MPH (24 knots; 12.3 m/s)
Visibility: 6 or more miles (10+ km)
Ceiling: 4000 feet AGL
Clouds: few clouds at 500 feet AGL
scattered clouds at 1200 feet AGL
broken clouds at 4000 feet AGL
Weather: no significant weather observed at this time

METAR text: RJCC 102300Z 35012KT 9999 -SHRA FEW005 SCT012 BKN040 08/06 Q1013 RMK 1ST005 4ST012 7CU040 A2993
Conditions at: RJCC (CHITOSE (JASDF/C, JP) observed 2300 UTC 10 May 2021
Temperature: 8.0°C (46°F)
Dewpoint: 6.0°C (43°F) [RH = 87%]
Pressure (altimeter): 29.91 inches Hg (1013.0 mb)
Winds: from the N (350 degrees) at 14 MPH (12 knots; 6.2 m/s)
Visibility: 6 or more miles (10+ km)
Ceiling: 4000 feet AGL
Clouds: few clouds at 500 feet AGL
scattered clouds at 1200 feet AGL
broken clouds at 4000 feet AGL
Weather: -SHRA  (light rain showers)

METAR text: RJCC 102230Z 35013KT 9999 FEW005 SCT010 BKN040 08/06 Q1013 RMK 1ST005 4ST010 7CU040 A2992
Conditions at: RJCC (CHITOSE (JASDF/C, JP) observed 2230 UTC 10 May 2021
Temperature: 8.0°C (46°F)
Dewpoint: 6.0°C (43°F) [RH = 87%]
Pressure (altimeter): 29.91 inches Hg (1013.0 mb)
Winds: from the N (350 degrees) at 15 MPH (13 knots; 6.7 m/s)
Visibility: 6 or more miles (10+ km)
Ceiling: 4000 feet AGL
Clouds: few clouds at 500 feet AGL
scattered clouds at 1000 feet AGL
broken clouds at 4000 feet AGL
Weather: no significant weather observed at this time

METAR text: RJCC 102200Z 33013KT 9999 FEW005 SCT010 BKN040 08/06 Q1013 RMK 1ST005 4ST010 7CU040 A2992
Conditions at: RJCC (CHITOSE (JASDF/C, JP) observed 2200 UTC 10 May 2021
Temperature: 8.0°C (46°F)
Dewpoint: 6.0°C (43°F) [RH = 87%]
Pressure (altimeter): 29.91 inches Hg (1013.0 mb)
Winds: from the NNW (330 degrees) at 15 MPH (13 knots; 6.7 m/s)
Visibility: 6 or more miles (10+ km)
Ceiling: 4000 feet AGL
Clouds: few clouds at 500 feet AGL
scattered clouds at 1000 feet AGL
broken clouds at 4000 feet AGL
Weather: no significant weather observed at this time

METAR text: RJCC 102130Z 33013KT 9999 FEW005 BKN010 BKN030 07/06 Q1013 RMK 1ST005 6ST010 7CU030 A2992
Conditions at: RJCC (CHITOSE (JASDF/C, JP) observed 2130 UTC 10 May 2021
Temperature: 7.0°C (45°F)
Dewpoint: 6.0°C (43°F) [RH = 93%]
Pressure (altimeter): 29.91 inches Hg (1013.0 mb)
Winds: from the NNW (330 degrees) at 15 MPH (13 knots; 6.7 m/s)
Visibility: 6 or more miles (10+ km)
Ceiling: 1000 feet AGL
Clouds: few clouds at 500 feet AGL
broken clouds at 1000 feet AGL
broken clouds at 3000 feet AGL
Weather: no significant weather observed at this time

METAR text: RJCC 102100Z 34009KT 9999 FEW005 BKN010 BKN030 07/06 Q1013 RMK 1ST005 6ST010 7CU030 A2992
Conditions at: RJCC (CHITOSE (JASDF/C, JP) observed 2100 UTC 10 May 2021
Temperature: 7.0°C (45°F)
Dewpoint: 6.0°C (43°F) [RH = 93%]
Pressure (altimeter): 29.91 inches Hg (1013.0 mb)
Winds: from the NNW (340 degrees) at 10 MPH (9 knots; 4.6 m/s)
Visibility: 6 or more miles (10+ km)
Ceiling: 1000 feet AGL
Clouds: few clouds at 500 feet AGL
broken clouds at 1000 feet AGL
broken clouds at 3000 feet AGL
Weather: no significant weather observed at this time

METAR text: RJCC 102030Z 33010KT 9999 FEW005 BKN010 BKN030 07/06 Q1012 RMK 1ST005 5ST010 7CU030 A2991
Conditions at: RJCC (CHITOSE (JASDF/C, JP) observed 2030 UTC 10 May 2021
Temperature: 7.0°C (45°F)
Dewpoint: 6.0°C (43°F) [RH = 93%]
Pressure (altimeter): 29.88 inches Hg (1012.0 mb)
Winds: from the NNW (330 degrees) at 12 MPH (10 knots; 5.1 m/s)
Visibility: 6 or more miles (10+ km)
Ceiling: 1000 feet AGL
Clouds: few clouds at 500 feet AGL
broken clouds at 1000 feet AGL
broken clouds at 3000 feet AGL
Weather: no significant weather observed at this time

METAR text: RJCC 102000Z 32012KT 9999 -SHRA FEW005 BKN012 BKN030 07/06 Q1012 RMK 1ST005 5ST012 7CU030 A2990
Conditions at: RJCC (CHITOSE (JASDF/C, JP) observed 2000 UTC 10 May 2021
Temperature: 7.0°C (45°F)
Dewpoint: 6.0°C (43°F) [RH = 93%]
Pressure (altimeter): 29.88 inches Hg (1012.0 mb)
Winds: from the NW (320 degrees) at 14 MPH (12 knots; 6.2 m/s)
Visibility: 6 or more miles (10+ km)
Ceiling: 1200 feet AGL
Clouds: few clouds at 500 feet AGL
broken clouds at 1200 feet AGL
broken clouds at 3000 feet AGL
Weather: -SHRA  (light rain showers)

METAR text: RJCC 101930Z 33012KT 9999 FEW005 BKN015 BKN020 07/06 Q1012 RMK 1ST005 5ST015 7CU020 A2989
Conditions at: RJCC (CHITOSE (JASDF/C, JP) observed 1930 UTC 10 May 2021
Temperature: 7.0°C (45°F)
Dewpoint: 6.0°C (43°F) [RH = 93%]
Pressure (altimeter): 29.88 inches Hg (1012.0 mb)
Winds: from the NNW (330 degrees) at 14 MPH (12 knots; 6.2 m/s)
Visibility: 6 or more miles (10+ km)
Ceiling: 1500 feet AGL
Clouds: few clouds at 500 feet AGL
broken clouds at 1500 feet AGL
broken clouds at 2000 feet AGL
Weather: no significant weather observed at this time

METAR text: RJCC 101900Z 33013KT 9999 -SHRA FEW005 BKN012 BKN020 07/06 Q1011 RMK 1ST005 5ST012 7CU020 A2988
Conditions at: RJCC (CHITOSE (JASDF/C, JP) observed 1900 UTC 10 May 2021
Temperature: 7.0°C (45°F)
Dewpoint: 6.0°C (43°F) [RH = 93%]
Pressure (altimeter): 29.85 inches Hg (1011.0 mb)
Winds: from the NNW (330 degrees) at 15 MPH (13 knots; 6.7 m/s)
Visibility: 6 or more miles (10+ km)
Ceiling: 1200 feet AGL
Clouds: few clouds at 500 feet AGL
broken clouds at 1200 feet AGL
broken clouds at 2000 feet AGL
Weather: -SHRA  (light rain showers)

METAR text: RJCC 101830Z 34013KT 5000 -SHRA BR FEW003 BKN010 BKN015 06/06 Q1011 RMK 1ST003 5ST010 7ST015 A2987
Conditions at: RJCC (CHITOSE (JASDF/C, JP) observed 1830 UTC 10 May 2021
Temperature: 6.0°C (43°F)
Dewpoint: 6.0°C (43°F) [RH = 100%]
Pressure (altimeter): 29.85 inches Hg (1011.0 mb)
Winds: from the NNW (340 degrees) at 15 MPH (13 knots; 6.7 m/s)
Visibility: 3 miles ( 5 km)
Ceiling: 1000 feet AGL
Clouds: few clouds at 300 feet AGL
broken clouds at 1000 feet AGL
broken clouds at 1500 feet AGL
Weather: -SHRA BR  (light rain showers, mist)

METAR text: RJCC 101800Z 35009KT 6000 -SHRA FEW003 BKN008 BKN020 06/06 Q1011 RMK 1ST003 5ST008 7CU020 A2987
Conditions at: RJCC (CHITOSE (JASDF/C, JP) observed 1800 UTC 10 May 2021
Temperature: 6.0°C (43°F)
Dewpoint: 6.0°C (43°F) [RH = 100%]
Pressure (altimeter): 29.85 inches Hg (1011.0 mb)
Winds: from the N (350 degrees) at 10 MPH (9 knots; 4.6 m/s)
Visibility: 4 miles ( 6 km)
Ceiling: 800 feet AGL
Clouds: few clouds at 300 feet AGL
broken clouds at 800 feet AGL
broken clouds at 2000 feet AGL
Weather: -SHRA  (light rain showers)

METAR text: RJCC 101730Z 35009KT 9999 -SHRA FEW005 BKN008 BKN020 07/07 Q1011 RMK 1ST005 5ST008 7CU020 A2987
Conditions at: RJCC (CHITOSE (JASDF/C, JP) observed 1730 UTC 10 May 2021
Temperature: 7.0°C (45°F)
Dewpoint: 7.0°C (45°F) [RH = 100%]
Pressure (altimeter): 29.85 inches Hg (1011.0 mb)
Winds: from the N (350 degrees) at 10 MPH (9 knots; 4.6 m/s)
Visibility: 6 or more miles (10+ km)
Ceiling: 800 feet AGL
Clouds: few clouds at 500 feet AGL
broken clouds at 800 feet AGL
broken clouds at 2000 feet AGL
Weather: -SHRA  (light rain showers)

METAR text: RJCC 101700Z 35007KT 9999 -SHRA FEW005 BKN008 BKN015 07/06 Q1011 RMK 1ST005 5ST008 7ST015 A2986
Conditions at: RJCC (CHITOSE (JASDF/C, JP) observed 1700 UTC 10 May 2021
Temperature: 7.0°C (45°F)
Dewpoint: 6.0°C (43°F) [RH = 93%]
Pressure (altimeter): 29.85 inches Hg (1011.0 mb)
Winds: from the N (350 degrees) at 8 MPH (7 knots; 3.6 m/s)
Visibility: 6 or more miles (10+ km)
Ceiling: 800 feet AGL
Clouds: few clouds at 500 feet AGL
broken clouds at 800 feet AGL
broken clouds at 1500 feet AGL
Weather: -SHRA  (light rain showers)

METAR text: RJCC 101630Z 33016KT 9999 -SHRA FEW010 BKN015 07/05 Q1011 RMK 1ST010 7ST015 A2985
Conditions at: RJCC (CHITOSE (JASDF/C, JP) observed 1630 UTC 10 May 2021
Temperature: 7.0°C (45°F)
Dewpoint: 5.0°C (41°F) [RH = 87%]
Pressure (altimeter): 29.85 inches Hg (1011.0 mb)
Winds: from the NNW (330 degrees) at 18 MPH (16 knots; 8.2 m/s)
Visibility: 6 or more miles (10+ km)
Ceiling: 1500 feet AGL
Clouds: few clouds at 1000 feet AGL
broken clouds at 1500 feet AGL
Weather: -SHRA  (light rain showers)

METAR text: RJCC 101600Z 33014KT 9999 FEW010 BKN017 08/05 Q1010 RMK 1ST010 7ST017 A2985
Conditions at: RJCC (CHITOSE (JASDF/C, JP) observed 1600 UTC 10 May 2021
Temperature: 8.0°C (46°F)
Dewpoint: 5.0°C (41°F) [RH = 81%]
Pressure (altimeter): 29.82 inches Hg (1010.0 mb)
Winds: from the NNW (330 degrees) at 16 MPH (14 knots; 7.2 m/s)
Visibility: 6 or more miles (10+ km)
Ceiling: 1700 feet AGL
Clouds: few clouds at 1000 feet AGL
broken clouds at 1700 feet AGL
Weather: no significant weather observed at this time

METAR text: RJCC 101530Z 33013KT 9999 FEW010 BKN018 08/04 Q1010 RMK 1ST010 7ST018 A2985
Conditions at: RJCC (CHITOSE (JASDF/C, JP) observed 1530 UTC 10 May 2021
Temperature: 8.0°C (46°F)
Dewpoint: 4.0°C (39°F) [RH = 76%]
Pressure (altimeter): 29.82 inches Hg (1010.0 mb)
Winds: from the NNW (330 degrees) at 15 MPH (13 knots; 6.7 m/s)
Visibility: 6 or more miles (10+ km)
Ceiling: 1800 feet AGL
Clouds: few clouds at 1000 feet AGL
broken clouds at 1800 feet AGL
Weather: no significant weather observed at this time

METAR text: RJCC 101500Z 33017KT 9999 FEW015 BKN020 BKN025 08/04 Q1010 RMK 1ST015 5ST020 7CU025 A2984
Conditions at: RJCC (CHITOSE (JASDF/C, JP) observed 1500 UTC 10 May 2021
Temperature: 8.0°C (46°F)
Dewpoint: 4.0°C (39°F) [RH = 76%]
Pressure (altimeter): 29.82 inches Hg (1010.0 mb)
Winds: from the NNW (330 degrees) at 20 MPH (17 knots; 8.7 m/s)
Visibility: 6 or more miles (10+ km)
Ceiling: 2000 feet AGL
Clouds: few clouds at 1500 feet AGL
broken clouds at 2000 feet AGL
broken clouds at 2500 feet AGL
Weather: no significant weather observed at this time

METAR text: RJCC 101430Z 33016G28KT 9999 FEW015 SCT020 BKN025 08/04 Q1010
Conditions at: RJCC (CHITOSE (JASDF/C, JP) observed 1430 UTC 10 May 2021
Temperature: 8.0°C (46°F)
Dewpoint: 4.0°C (39°F) [RH = 76%]
Pressure (altimeter): 29.82 inches Hg (1010.0 mb)
Winds: from the NNW (330 degrees) at 18 MPH (16 knots; 8.2 m/s)
gusting to 32 MPH (28 knots; 14.4 m/s)
Visibility: 6 or more miles (10+ km)
Ceiling: 2500 feet AGL
Clouds: few clouds at 1500 feet AGL
scattered clouds at 2000 feet AGL
broken clouds at 2500 feet AGL
Weather: no significant weather observed at this time

METAR text: RJCC 101400Z 33016KT 9999 FEW015 SCT018 BKN025 08/04 Q1010 RMK 1ST015 4ST018 7CU025 A2983
Conditions at: RJCC (CHITOSE (JASDF/C, JP) observed 1400 UTC 10 May 2021
Temperature: 8.0°C (46°F)
Dewpoint: 4.0°C (39°F) [RH = 76%]
Pressure (altimeter): 29.82 inches Hg (1010.0 mb)
Winds: from the NNW (330 degrees) at 18 MPH (16 knots; 8.2 m/s)
Visibility: 6 or more miles (10+ km)
Ceiling: 2500 feet AGL
Clouds: few clouds at 1500 feet AGL
scattered clouds at 1800 feet AGL
broken clouds at 2500 feet AGL
Weather: no significant weather observed at this time

METAR text: RJCC 101330Z 33017KT 9999 FEW015 BKN018 BKN025 08/04 Q1010 RMK 1ST015 5ST018 7CU025 A2982
Conditions at: RJCC (CHITOSE (JASDF/C, JP) observed 1330 UTC 10 May 2021
Temperature: 8.0°C (46°F)
Dewpoint: 4.0°C (39°F) [RH = 76%]
Pressure (altimeter): 29.82 inches Hg (1010.0 mb)
Winds: from the NNW (330 degrees) at 20 MPH (17 knots; 8.7 m/s)
Visibility: 6 or more miles (10+ km)
Ceiling: 1800 feet AGL
Clouds: few clouds at 1500 feet AGL
broken clouds at 1800 feet AGL
broken clouds at 2500 feet AGL
Weather: no significant weather observed at this time

METAR text: RJCC 101300Z 34017KT 9999 FEW015 BKN018 08/05 Q1009
Conditions at: RJCC (CHITOSE (JASDF/C, JP) observed 1300 UTC 10 May 2021
Temperature: 8.0°C (46°F)
Dewpoint: 5.0°C (41°F) [RH = 81%]
Pressure (altimeter): 29.79 inches Hg (1009.0 mb)
Winds: from the NNW (340 degrees) at 20 MPH (17 knots; 8.7 m/s)
Visibility: 6 or more miles (10+ km)
Ceiling: 1800 feet AGL
Clouds: few clouds at 1500 feet AGL
broken clouds at 1800 feet AGL
Weather: no significant weather observed at this time

METAR text: RJCC 101230Z 34017KT 9999 -SHRA FEW015 BKN018 08/05 Q1009 RMK 1ST015 7ST018 A2981
Conditions at: RJCC (CHITOSE (JASDF/C, JP) observed 1230 UTC 10 May 2021
Temperature: 8.0°C (46°F)
Dewpoint: 5.0°C (41°F) [RH = 81%]
Pressure (altimeter): 29.79 inches Hg (1009.0 mb)
Winds: from the NNW (340 degrees) at 20 MPH (17 knots; 8.7 m/s)
Visibility: 6 or more miles (10+ km)
Ceiling: 1800 feet AGL
Clouds: few clouds at 1500 feet AGL
broken clouds at 1800 feet AGL
Weather: -SHRA  (light rain showers)

METAR text: RJCC 101200Z 33016KT 9999 -SHRA FEW015 BKN018 08/04 Q1009 RMK 1ST015 7ST018 A2980
Conditions at: RJCC (CHITOSE (JASDF/C, JP) observed 1200 UTC 10 May 2021
Temperature: 8.0°C (46°F)
Dewpoint: 4.0°C (39°F) [RH = 76%]
Pressure (altimeter): 29.79 inches Hg (1009.0 mb)
Winds: from the NNW (330 degrees) at 18 MPH (16 knots; 8.2 m/s)
Visibility: 6 or more miles (10+ km)
Ceiling: 1800 feet AGL
Clouds: few clouds at 1500 feet AGL
broken clouds at 1800 feet AGL
Weather: -SHRA  (light rain showers)

METAR text: RJCC 101130Z 34019KT 9999 FEW015 BKN020 BKN035 08/04 Q1008 RMK 1ST015 5CU020 7CU035 A2979
Conditions at: RJCC (CHITOSE (JASDF/C, JP) observed 1130 UTC 10 May 2021
Temperature: 8.0°C (46°F)
Dewpoint: 4.0°C (39°F) [RH = 76%]
Pressure (altimeter): 29.76 inches Hg (1008.0 mb)
Winds: from the NNW (340 degrees) at 22 MPH (19 knots; 9.8 m/s)
Visibility: 6 or more miles (10+ km)
Ceiling: 2000 feet AGL
Clouds: few clouds at 1500 feet AGL
broken clouds at 2000 feet AGL
broken clouds at 3500 feet AGL
Weather: no significant weather observed at this time

METAR text: RJCC 101118Z 34018G29KT 9999 FEW015 BKN020 BKN030 08/04 Q1008 RMK 1ST015 5CU020 7CU030 A2979
Conditions at: RJCC (CHITOSE (JASDF/C, JP) observed 1118 UTC 10 May 2021
Temperature: 8.0°C (46°F)
Dewpoint: 4.0°C (39°F) [RH = 76%]
Pressure (altimeter): 29.76 inches Hg (1008.0 mb)
Winds: from the NNW (340 degrees) at 21 MPH (18 knots; 9.3 m/s)
gusting to 33 MPH (29 knots; 14.9 m/s)
Visibility: 6 or more miles (10+ km)
Ceiling: 2000 feet AGL
Clouds: few clouds at 1500 feet AGL
broken clouds at 2000 feet AGL
broken clouds at 3000 feet AGL
Weather: no significant weather observed at this time

METAR text: RJCC 101100Z 33020KT 9999 FEW015 BKN020 BKN030 08/04 Q1008 RMK 1ST015 5CU020 7CU030 A2979
Conditions at: RJCC (CHITOSE (JASDF/C, JP) observed 1100 UTC 10 May 2021
Temperature: 8.0°C (46°F)
Dewpoint: 4.0°C (39°F) [RH = 76%]
Pressure (altimeter): 29.76 inches Hg (1008.0 mb)
Winds: from the NNW (330 degrees) at 23 MPH (20 knots; 10.3 m/s)
Visibility: 6 or more miles (10+ km)
Ceiling: 2000 feet AGL
Clouds: few clouds at 1500 feet AGL
broken clouds at 2000 feet AGL
broken clouds at 3000 feet AGL
Weather: no significant weather observed at this time

METAR text: RJCC 101030Z 35019KT 9999 FEW015 BKN035 08/04 Q1008 RMK 1ST015 7CU035 A2977
Conditions at: RJCC (CHITOSE (JASDF/C, JP) observed 1030 UTC 10 May 2021
Temperature: 8.0°C (46°F)
Dewpoint: 4.0°C (39°F) [RH = 76%]
Pressure (altimeter): 29.76 inches Hg (1008.0 mb)
Winds: from the N (350 degrees) at 22 MPH (19 knots; 9.8 m/s)
Visibility: 6 or more miles (10+ km)
Ceiling: 3500 feet AGL
Clouds: few clouds at 1500 feet AGL
broken clouds at 3500 feet AGL
Weather: no significant weather observed at this time

METAR text: RJCC 101000Z 35018KT 9999 FEW015 BKN035 08/04 Q1007 RMK 1ST015 7CU035 A2976
Conditions at: RJCC (CHITOSE (JASDF/C, JP) observed 1000 UTC 10 May 2021
Temperature: 8.0°C (46°F)
Dewpoint: 4.0°C (39°F) [RH = 76%]
Pressure (altimeter): 29.73 inches Hg (1007.0 mb)
Winds: from the N (350 degrees) at 21 MPH (18 knots; 9.3 m/s)
Visibility: 6 or more miles (10+ km)
Ceiling: 3500 feet AGL
Clouds: few clouds at 1500 feet AGL
broken clouds at 3500 feet AGL
Weather: no significant weather observed at this time

METAR text: RJCC 100931Z 34019G29KT 9999 FEW015 SCT035 BKN050 08/04 Q1007 RMK 1ST015 3CU035 6CU050 A2974
Conditions at: RJCC (CHITOSE (JASDF/C, JP) observed 0931 UTC 10 May 2021
Temperature: 8.0°C (46°F)
Dewpoint: 4.0°C (39°F) [RH = 76%]
Pressure (altimeter): 29.73 inches Hg (1007.0 mb)
Winds: from the NNW (340 degrees) at 22 MPH (19 knots; 9.8 m/s)
gusting to 33 MPH (29 knots; 14.9 m/s)
Visibility: 6 or more miles (10+ km)
Ceiling: 5000 feet AGL
Clouds: few clouds at 1500 feet AGL
scattered clouds at 3500 feet AGL
broken clouds at 5000 feet AGL
Weather: no significant weather observed at this time

METAR text: RJCC 100930Z 34020KT 9999 FEW015 SCT035 BKN050 08/04 Q1007 RMK 1ST015 3CU035 6CU050 A2974
Conditions at: RJCC (CHITOSE (JASDF/C, JP) observed 0930 UTC 10 May 2021
Temperature: 8.0°C (46°F)
Dewpoint: 4.0°C (39°F) [RH = 76%]
Pressure (altimeter): 29.73 inches Hg (1007.0 mb)
Winds: from the NNW (340 degrees) at 23 MPH (20 knots; 10.3 m/s)
Visibility: 6 or more miles (10+ km)
Ceiling: 5000 feet AGL
Clouds: few clouds at 1500 feet AGL
scattered clouds at 3500 feet AGL
broken clouds at 5000 feet AGL
Weather: no significant weather observed at this time

METAR text: RJCC 100910Z 34016G26KT 9999 FEW015 BKN040 08/04 Q1006 RMK 1ST015 7CU040 A2973
Conditions at: RJCC (CHITOSE (JASDF/C, JP) observed 0910 UTC 10 May 2021
Temperature: 8.0°C (46°F)
Dewpoint: 4.0°C (39°F) [RH = 76%]
Pressure (altimeter): 29.70 inches Hg (1006.0 mb)
Winds: from the NNW (340 degrees) at 18 MPH (16 knots; 8.2 m/s)
gusting to 30 MPH (26 knots; 13.4 m/s)
Visibility: 6 or more miles (10+ km)
Ceiling: 4000 feet AGL
Clouds: few clouds at 1500 feet AGL
broken clouds at 4000 feet AGL
Weather: no significant weather observed at this time

METAR text: RJCC 100900Z 35016KT 9999 FEW015 BKN040 08/04 Q1006 RMK 1ST015 7CU040 A2973
Conditions at: RJCC (CHITOSE (JASDF/C, JP) observed 0900 UTC 10 May 2021
Temperature: 8.0°C (46°F)
Dewpoint: 4.0°C (39°F) [RH = 76%]
Pressure (altimeter): 29.70 inches Hg (1006.0 mb)
Winds: from the N (350 degrees) at 18 MPH (16 knots; 8.2 m/s)
Visibility: 6 or more miles (10+ km)
Ceiling: 4000 feet AGL
Clouds: few clouds at 1500 feet AGL
broken clouds at 4000 feet AGL
Weather: no significant weather observed at this time

METAR text: RJCC 100830Z 34017KT 9999 FEW010 SCT015 BKN040 08/05 Q1006 RMK 1ST010 3ST015 7CU040 A2972
Conditions at: RJCC (CHITOSE (JASDF/C, JP) observed 0830 UTC 10 May 2021
Temperature: 8.0°C (46°F)
Dewpoint: 5.0°C (41°F) [RH = 81%]
Pressure (altimeter): 29.70 inches Hg (1006.0 mb)
Winds: from the NNW (340 degrees) at 20 MPH (17 knots; 8.7 m/s)
Visibility: 6 or more miles (10+ km)
Ceiling: 4000 feet AGL
Clouds: few clouds at 1000 feet AGL
scattered clouds at 1500 feet AGL
broken clouds at 4000 feet AGL
Weather: no significant weather observed at this time

METAR text: RJCC 100800Z 35017KT 9999 FEW010 SCT015 BKN040 08/05 Q1006 RMK 1ST010 3ST015 7CU040 A2971
Conditions at: RJCC (CHITOSE (JASDF/C, JP) observed 0800 UTC 10 May 2021
Temperature: 8.0°C (46°F)
Dewpoint: 5.0°C (41°F) [RH = 81%]
Pressure (altimeter): 29.70 inches Hg (1006.0 mb)
Winds: from the N (350 degrees) at 20 MPH (17 knots; 8.7 m/s)
Visibility: 6 or more miles (10+ km)
Ceiling: 4000 feet AGL
Clouds: few clouds at 1000 feet AGL
scattered clouds at 1500 feet AGL
broken clouds at 4000 feet AGL
Weather: no significant weather observed at this time

METAR text: RJCC 100737Z 34019G29KT 9999 FEW010 SCT015 BKN040 09/05 Q1005 RMK 1ST010 3ST015 5CU040 A2970
Conditions at: RJCC (CHITOSE (JASDF/C, JP) observed 0737 UTC 10 May 2021
Temperature: 9.0°C (48°F)
Dewpoint: 5.0°C (41°F) [RH = 76%]
Pressure (altimeter): 29.68 inches Hg (1005.0 mb)
Winds: from the NNW (340 degrees) at 22 MPH (19 knots; 9.8 m/s)
gusting to 33 MPH (29 knots; 14.9 m/s)
Visibility: 6 or more miles (10+ km)
Ceiling: 4000 feet AGL
Clouds: few clouds at 1000 feet AGL
scattered clouds at 1500 feet AGL
broken clouds at 4000 feet AGL
Weather: no significant weather observed at this time

METAR text: RJCC 100730Z 34020KT 9999 FEW010 SCT015 BKN040 09/05 Q1005 RMK 1ST010 3ST015 5CU040 A2970
Conditions at: RJCC (CHITOSE (JASDF/C, JP) observed 0730 UTC 10 May 2021
Temperature: 9.0°C (48°F)
Dewpoint: 5.0°C (41°F) [RH = 76%]
Pressure (altimeter): 29.68 inches Hg (1005.0 mb)
Winds: from the NNW (340 degrees) at 23 MPH (20 knots; 10.3 m/s)
Visibility: 6 or more miles (10+ km)
Ceiling: 4000 feet AGL
Clouds: few clouds at 1000 feet AGL
scattered clouds at 1500 feet AGL
broken clouds at 4000 feet AGL
Weather: no significant weather observed at this time

METAR text: RJCC 100700Z 35021KT 9999 FEW010 SCT015 BKN040 09/05 Q1005 RMK 1ST010 3ST015 5CU040 A2969
Conditions at: RJCC (CHITOSE (JASDF/C, JP) observed 0700 UTC 10 May 2021
Temperature: 9.0°C (48°F)
Dewpoint: 5.0°C (41°F) [RH = 76%]
Pressure (altimeter): 29.68 inches Hg (1005.0 mb)
Winds: from the N (350 degrees) at 24 MPH (21 knots; 10.8 m/s)
Visibility: 6 or more miles (10+ km)
Ceiling: 4000 feet AGL
Clouds: few clouds at 1000 feet AGL
scattered clouds at 1500 feet AGL
broken clouds at 4000 feet AGL
Weather: no significant weather observed at this time

METAR text: RJCC 100630Z 34020G30KT 9999 FEW010 SCT015 BKN040 10/04 Q1005 RMK 1ST010 3ST015 5CU040 A2968
Conditions at: RJCC (CHITOSE (JASDF/C, JP) observed 0630 UTC 10 May 2021
Temperature: 10.0°C (50°F)
Dewpoint: 4.0°C (39°F) [RH = 66%]
Pressure (altimeter): 29.68 inches Hg (1005.0 mb)
Winds: from the NNW (340 degrees) at 23 MPH (20 knots; 10.3 m/s)
gusting to 34 MPH (30 knots; 15.4 m/s)
Visibility: 6 or more miles (10+ km)
Ceiling: 4000 feet AGL
Clouds: few clouds at 1000 feet AGL
scattered clouds at 1500 feet AGL
broken clouds at 4000 feet AGL
Weather: no significant weather observed at this time

METAR text: RJCC 100600Z 34022KT 9999 FEW010 SCT015 BKN045 10/06 Q1004 RMK 1ST010 3ST015 5CU045 A2967
Conditions at: RJCC (CHITOSE (JASDF/C, JP) observed 0600 UTC 10 May 2021
Temperature: 10.0°C (50°F)
Dewpoint: 6.0°C (43°F) [RH = 76%]
Pressure (altimeter): 29.65 inches Hg (1004.0 mb)
Winds: from the NNW (340 degrees) at 25 MPH (22 knots; 11.3 m/s)
Visibility: 6 or more miles (10+ km)
Ceiling: 4500 feet AGL
Clouds: few clouds at 1000 feet AGL
scattered clouds at 1500 feet AGL
broken clouds at 4500 feet AGL
Weather: no significant weather observed at this time

METAR text: RJCC 100530Z 34019KT 9999 FEW010 SCT015 BKN045 10/06 Q1004 RMK 1ST010 3ST015 6CU045 A2967
Conditions at: RJCC (CHITOSE (JASDF/C, JP) observed 0530 UTC 10 May 2021
Temperature: 10.0°C (50°F)
Dewpoint: 6.0°C (43°F) [RH = 76%]
Pressure (altimeter): 29.65 inches Hg (1004.0 mb)
Winds: from the NNW (340 degrees) at 22 MPH (19 knots; 9.8 m/s)
Visibility: 6 or more miles (10+ km)
Ceiling: 4500 feet AGL
Clouds: few clouds at 1000 feet AGL
scattered clouds at 1500 feet AGL
broken clouds at 4500 feet AGL
Weather: no significant weather observed at this time

METAR text: RJCC 100500Z 35022KT 9999 FEW015 SCT020 BKN045 11/06 Q1004 RMK 1ST015 3CU020 5CU045 A2966
Conditions at: RJCC (CHITOSE (JASDF/C, JP) observed 0500 UTC 10 May 2021
Temperature: 11.0°C (52°F)
Dewpoint: 6.0°C (43°F) [RH = 71%]
Pressure (altimeter): 29.65 inches Hg (1004.0 mb)
Winds: from the N (350 degrees) at 25 MPH (22 knots; 11.3 m/s)
Visibility: 6 or more miles (10+ km)
Ceiling: 4500 feet AGL
Clouds: few clouds at 1500 feet AGL
scattered clouds at 2000 feet AGL
broken clouds at 4500 feet AGL
Weather: no significant weather observed at this time

METAR text: RJCC 100430Z 33018KT 9999 FEW015 SCT020 BKN040 12/06 Q1004 RMK 1ST015 3CU020 5CU040 A2965
Conditions at: RJCC (CHITOSE (JASDF/C, JP) observed 0430 UTC 10 May 2021
Temperature: 12.0°C (54°F)
Dewpoint: 6.0°C (43°F) [RH = 67%]
Pressure (altimeter): 29.65 inches Hg (1004.0 mb)
Winds: from the NNW (330 degrees) at 21 MPH (18 knots; 9.3 m/s)
Visibility: 6 or more miles (10+ km)
Ceiling: 4000 feet AGL
Clouds: few clouds at 1500 feet AGL
scattered clouds at 2000 feet AGL
broken clouds at 4000 feet AGL
Weather: no significant weather observed at this time

METAR text: RJCC 100400Z 34019KT 9999 -SHRA FEW015 BKN020 BKN040 11/07 Q1003 RMK 1ST015 5CU020 6CU040 A2964
Conditions at: RJCC (CHITOSE (JASDF/C, JP) observed 0400 UTC 10 May 2021
Temperature: 11.0°C (52°F)
Dewpoint: 7.0°C (45°F) [RH = 76%]
Pressure (altimeter): 29.62 inches Hg (1003.0 mb)
Winds: from the NNW (340 degrees) at 22 MPH (19 knots; 9.8 m/s)
Visibility: 6 or more miles (10+ km)
Ceiling: 2000 feet AGL
Clouds: few clouds at 1500 feet AGL
broken clouds at 2000 feet AGL
broken clouds at 4000 feet AGL
Weather: -SHRA  (light rain showers)

METAR text: RJCC 100330Z 33021KT 9999 -SHRA FEW015 BKN040 BKN/// 12/06 Q1003 RMK 1ST015 6CU040 A2962
Conditions at: RJCC (CHITOSE (JASDF/C, JP) observed 0330 UTC 10 May 2021
Temperature: 12.0°C (54°F)
Dewpoint: 6.0°C (43°F) [RH = 67%]
Pressure (altimeter): 29.62 inches Hg (1003.0 mb)
Winds: from the NNW (330 degrees) at 24 MPH (21 knots; 10.8 m/s)
Visibility: 6 or more miles (10+ km)
Ceiling: 4000 feet AGL
Clouds: few clouds at 1500 feet AGL
broken clouds at 4000 feet AGL
Weather: -SHRA  (light rain showers)

METAR text: RJCC 100316Z 34019G29KT 9999 -SHRA FEW015 BKN040 13/06 Q1003 RMK 1ST015 7CU040 A2962
Conditions at: RJCC (CHITOSE (JASDF/C, JP) observed 0316 UTC 10 May 2021
Temperature: 13.0°C (55°F)
Dewpoint: 6.0°C (43°F) [RH = 62%]
Pressure (altimeter): 29.62 inches Hg (1003.0 mb)
Winds: from the NNW (340 degrees) at 22 MPH (19 knots; 9.8 m/s)
gusting to 33 MPH (29 knots; 14.9 m/s)
Visibility: 6 or more miles (10+ km)
Ceiling: 4000 feet AGL
Clouds: few clouds at 1500 feet AGL
broken clouds at 4000 feet AGL
Weather: -SHRA  (light rain showers)

METAR text: RJCC 100300Z 33019KT 9999 -SHRA FEW015 BKN040 12/07 Q1003 RMK 1ST015 7CU040 A2962
Conditions at: RJCC (CHITOSE (JASDF/C, JP) observed 0300 UTC 10 May 2021
Temperature: 12.0°C (54°F)
Dewpoint: 7.0°C (45°F) [RH = 71%]
Pressure (altimeter): 29.62 inches Hg (1003.0 mb)
Winds: from the NNW (330 degrees) at 22 MPH (19 knots; 9.8 m/s)
Visibility: 6 or more miles (10+ km)
Ceiling: 4000 feet AGL
Clouds: few clouds at 1500 feet AGL
broken clouds at 4000 feet AGL
Weather: -SHRA  (light rain showers)

METAR text: RJCC 100230Z 33021KT 9999 -SHRA FEW015 SCT030 BKN050 13/06 Q1002 RMK 1ST015 3CU030 7CU050 A2960
Conditions at: RJCC (CHITOSE (JASDF/C, JP) observed 0230 UTC 10 May 2021
Temperature: 13.0°C (55°F)
Dewpoint: 6.0°C (43°F) [RH = 62%]
Pressure (altimeter): 29.59 inches Hg (1002.0 mb)
Winds: from the NNW (330 degrees) at 24 MPH (21 knots; 10.8 m/s)
Visibility: 6 or more miles (10+ km)
Ceiling: 5000 feet AGL
Clouds: few clouds at 1500 feet AGL
scattered clouds at 3000 feet AGL
broken clouds at 5000 feet AGL
Weather: -SHRA  (light rain showers)

METAR text: RJCC 100200Z 33014KT 9999 -SHRA FEW015 SCT030 BKN050 13/07 Q1001 RMK 1ST015 3CU030 7CU050 A2959
Conditions at: RJCC (CHITOSE (JASDF/C, JP) observed 0200 UTC 10 May 2021
Temperature: 13.0°C (55°F)
Dewpoint: 7.0°C (45°F) [RH = 67%]
Pressure (altimeter): 29.56 inches Hg (1001.0 mb)
Winds: from the NNW (330 degrees) at 16 MPH (14 knots; 7.2 m/s)
Visibility: 6 or more miles (10+ km)
Ceiling: 5000 feet AGL
Clouds: few clouds at 1500 feet AGL
scattered clouds at 3000 feet AGL
broken clouds at 5000 feet AGL
Weather: -SHRA  (light rain showers)

METAR text: RJCC 100130Z 35011KT 320V030 9999 VCSH FEW015 SCT030 BKN050 13/07 Q1001 RMK 1ST015 4CU030 5CU050 A2958 SH S
Conditions at: RJCC (CHITOSE (JASDF/C, JP) observed 0130 UTC 10 May 2021
Temperature: 13.0°C (55°F)
Dewpoint: 7.0°C (45°F) [RH = 67%]
Pressure (altimeter): 29.56 inches Hg (1001.0 mb)
Winds: from the N (350 degrees) at 13 MPH (11 knots; 5.7 m/s)
Visibility: 6 or more miles (10+ km)
Ceiling: 5000 feet AGL
Clouds: few clouds at 1500 feet AGL
scattered clouds at 3000 feet AGL
broken clouds at 5000 feet AGL
Weather: VCSH  (showers in vicinity)

METAR text: RJCC 100100Z 36010KT 9999 FEW015 BKN030 BKN070 13/07 Q1001 RMK 1ST015 5CU030 6AC070 A2957
Conditions at: RJCC (CHITOSE (JASDF/C, JP) observed 0100 UTC 10 May 2021
Temperature: 13.0°C (55°F)
Dewpoint: 7.0°C (45°F) [RH = 67%]
Pressure (altimeter): 29.56 inches Hg (1001.0 mb)
Winds: from the N (360 degrees) at 12 MPH (10 knots; 5.1 m/s)
Visibility: 6 or more miles (10+ km)
Ceiling: 3000 feet AGL
Clouds: few clouds at 1500 feet AGL
broken clouds at 3000 feet AGL
broken clouds at 7000 feet AGL
Weather: no significant weather observed at this time

METAR text: RJCC 100030Z 35007KT 9999 FEW010 BKN035 BKN060 13/07 Q1001 RMK 1ST010 5CU035 6CU060 A2957
Conditions at: RJCC (CHITOSE (JASDF/C, JP) observed 0030 UTC 10 May 2021
Temperature: 13.0°C (55°F)
Dewpoint: 7.0°C (45°F) [RH = 67%]
Pressure (altimeter): 29.56 inches Hg (1001.0 mb)
Winds: from the N (350 degrees) at 8 MPH (7 knots; 3.6 m/s)
Visibility: 6 or more miles (10+ km)
Ceiling: 3500 feet AGL
Clouds: few clouds at 1000 feet AGL
broken clouds at 3500 feet AGL
broken clouds at 6000 feet AGL
Weather: no significant weather observed at this time

METAR text: RJCC 100000Z 34006KT 300V020 9999 -SHRA FEW008 SCT020 BKN035 11/07 Q1001 RMK 1ST008 3CU020 5CU035 A2956
Conditions at: RJCC (CHITOSE (JASDF/C, JP) observed 0000 UTC 10 May 2021
Temperature: 11.0°C (52°F)
Dewpoint: 7.0°C (45°F) [RH = 76%]
Pressure (altimeter): 29.56 inches Hg (1001.0 mb)
Winds: from the NNW (340 degrees) at 7 MPH (6 knots; 3.1 m/s)
Visibility: 6 or more miles (10+ km)
Ceiling: 3500 feet AGL
Clouds: few clouds at 800 feet AGL
scattered clouds at 2000 feet AGL
broken clouds at 3500 feet AGL
Weather: -SHRA  (light rain showers)

METAR text: RJCC 092330Z 32004KT 300V360 9999 -SHRA FEW008 SCT015 BKN035 11/07 Q1000 RMK 1ST008 3ST015 5CU035 A2955
Conditions at: RJCC (CHITOSE (JASDF/C, JP) observed 2330 UTC 09 May 2021
Temperature: 11.0°C (52°F)
Dewpoint: 7.0°C (45°F) [RH = 76%]
Pressure (altimeter): 29.53 inches Hg (1000.0 mb)
Winds: from the NW (320 degrees) at 5 MPH (4 knots; 2.1 m/s)
Visibility: 6 or more miles (10+ km)
Ceiling: 3500 feet AGL
Clouds: few clouds at 800 feet AGL
scattered clouds at 1500 feet AGL
broken clouds at 3500 feet AGL
Weather: -SHRA  (light rain showers)

Forecast for: RJCC (CHITOSE (JASDF/C, JP)
Text: TAF RJCC 110505Z 1106/1212 34012KT 9999 FEW010 BKN020
Forecast period: 0600 to 1800 UTC 11 May 2021
Forecast type: FROM: standard forecast or significant change
Winds: from the NNW (340 degrees) at 14 MPH (12 knots; 6.2 m/s)
Visibility: 6 or more miles (10+ km)
Ceiling: 2000 feet AGL
Clouds: few clouds at 1000 feet AGL
broken clouds at 2000 feet AGL
Weather: no significant weather forecast for this period
Text: BECMG 1118/1121 18014KT
Forecast period: 1800 UTC 11 May 2021 to 1200 UTC 12 May 2021
Forecast type: BECOMING: Conditions expected to become as follows by 2100 UTC 11 May 2021
Winds: from the S (180 degrees) at 16 MPH (14 knots; 7.2 m/s)
Visibility: 6 or more miles (10+ km)
Ceiling: 2000 feet AGL
Clouds: few clouds at 1000 feet AGL
broken clouds at 2000 feet AGL
Weather: no significant weather forecast for this period